Time;durP1;ratioP1;P1;durP2;ratioP2;P2;SDS_P1;SDS_P2;PMS_P1;PMS_P2;Temp;Humidity;BMP_temperature;BMP_pressure;BME280_temperature;BME280_humidity;BME280_pressure;Samples;Min_cycle;Max_cycle;Signal;HPM_P1;HPM_P2
2023/09/06 00:55:14;;;;;;;23.80;21.23;;;;;;;;;;6009041;23;20015;-86
2023/09/06 03:19:55;;;;;;;;;;;;;;;;;;;;;
2023/09/06 05:28:31;;;;;;;19.75;17.58;;;;;;;;;;6124823;23;20082;-87
2023/09/06 05:31:26;;;;;;;20.55;18.38;;;;;;;;;;6099996;23;20022;-87
2023/09/06 05:34:20;;;;;;;21.40;18.38;;;;;;;;;;6088020;23;20022;-87
2023/09/06 05:37:31;;;;;;;;;;;;;;;;;;;;;
2023/09/06 05:40:35;;;;;;;19.45;17.02;;;;;;;;;;6064640;23;20419;-88
2023/09/06 05:43:20;;;;;;;19.85;16.95;;;;;;;;;;6020921;23;20122;-86
2023/09/06 05:45:47;;;;;;;18.73;16.70;;;;;;;;;;6016589;23;20050;-87
2023/09/06 05:48:13;;;;;;;17.20;15.50;;;;;;;;;;6017632;23;20015;-86
2023/09/06 05:50:40;;;;;;;18.50;15.93;;;;;;;;;;6052279;23;20093;-86
2023/09/06 05:53:06;;;;;;;17.90;15.88;;;;;;;;;;6125189;23;20044;-87
2023/09/06 05:55:32;;;;;;;18.52;15.68;;;;;;;;;;6158620;23;20048;-87
2023/09/06 05:58:00;;;;;;;17.25;15.45;;;;;;;;;;6158846;23;20024;-87
2023/09/06 06:00:28;;;;;;;18.48;15.35;;;;;;;;;;6158773;23;20096;-87
2023/09/06 06:03:02;;;;;;;17.02;15.15;;;;;;;;;;6135882;23;20024;-87
2023/09/06 06:05:31;;;;;;;14.98;13.48;;;;;;;;;;6159237;23;20092;-87
2023/09/06 06:08:03;;;;;;;15.65;14.00;;;;;;;;;;6159214;23;20092;-86
2023/09/06 06:10:34;;;;;;;15.13;13.52;;;;;;;;;;6133852;23;20021;-86
2023/09/06 06:13:07;;;;;;;14.38;12.90;;;;;;;;;;6159765;23;20326;-87
2023/09/06 06:15:34;;;;;;;15.80;13.38;;;;;;;;;;6134641;23;20091;-87
2023/09/06 06:18:08;;;;;;;17.58;12.98;;;;;;;;;;6158133;23;20032;-86
2023/09/06 06:20:45;;;;;;;15.18;12.63;;;;;;;;;;6158853;23;20017;-86
2023/09/06 06:23:37;;;;;;;14.70;13.23;;;;;;;;;;6156531;23;20028;-86
2023/09/06 06:26:19;;;;;;;15.02;13.48;;;;;;;;;;6134484;23;20036;-86
2023/09/06 06:28:54;;;;;;;13.60;12.20;;;;;;;;;;6135591;23;20071;-87
2023/09/06 06:31:57;;;;;;;13.18;11.88;;;;;;;;;;6104869;23;20471;-86
2023/09/06 06:34:34;;;;;;;14.77;12.85;;;;;;;;;;6155323;23;20052;-86
2023/09/06 06:37:06;;;;;;;15.68;12.60;;;;;;;;;;6129517;23;20099;-87
2023/09/06 06:40:05;;;;;;;13.02;11.73;;;;;;;;;;6106364;23;20125;-87
2023/09/06 06:43:17;;;;;;;;;;;;;;;;;;;;;
2023/09/06 06:46:09;;;;;;;;;;;;;;;;;;;;;
2023/09/06 06:49:23;;;;;;;13.15;11.05;;;;;;;;;;6155205;23;20085;-87
2023/09/06 06:52:01;;;;;;;13.55;11.23;;;;;;;;;;6133954;23;20028;-87
2023/09/06 06:54:46;;;;;;;11.65;10.00;;;;;;;;;;6109080;23;20021;-88
2023/09/06 06:57:28;;;;;;;10.88;9.63;;;;;;;;;;6107390;23;20021;-87
2023/09/06 07:03:31;;;;;;;11.35;9.07;;;;;;;;;;6128554;23;20021;-87
2023/09/06 07:13:18;;;;;;;7.63;6.82;;;;;;;;;;5921300;24;20086;-87
2023/09/06 07:16:01;;;;;;;7.50;6.38;;;;;;;;;;5936539;24;20108;-87
2023/09/06 07:18:28;;;;;;;9.05;7.03;;;;;;;;;;5935762;24;20104;-87
2023/09/06 07:21:03;;;;;;;8.32;6.63;;;;;;;;;;6019943;23;20471;-87
2023/09/06 07:23:39;;;;;;;7.60;6.80;;;;;;;;;;6019972;23;20015;-87
2023/09/06 07:26:39;;;;;;;7.30;6.45;;;;;;;;;;6045666;23;20102;-86
2023/09/06 07:29:19;;;;;;;7.95;6.32;;;;;;;;;;6068999;23;20046;-86
2023/09/06 07:31:56;;;;;;;9.40;6.70;;;;;;;;;;6081810;23;20022;-85
2023/09/06 07:34:41;;;;;;;9.20;6.40;;;;;;;;;;6163916;23;20024;-87
2023/09/06 07:37:10;;;;;;;9.68;6.65;;;;;;;;;;6159374;23;20438;-86
2023/09/06 07:39:56;;;;;;;7.90;6.70;;;;;;;;;;6160418;23;20057;-87
2023/09/06 07:42:25;;;;;;;7.60;6.78;;;;;;;;;;6160055;23;20021;-87
2023/09/06 07:45:00;;;;;;;9.10;6.15;;;;;;;;;;6160030;23;20040;-86
2023/09/06 07:47:36;;;;;;;7.50;6.33;;;;;;;;;;6162259;23;20024;-87
2023/09/06 07:50:05;;;;;;;8.38;6.13;;;;;;;;;;6160310;23;20021;-84
2023/09/06 07:52:31;;;;;;;7.40;5.70;;;;;;;;;;6135587;23;20441;-85
2023/09/06 07:54:59;;;;;;;7.43;5.70;;;;;;;;;;6160149;23;20020;-84
2023/09/06 07:57:25;;;;;;;8.82;6.20;;;;;;;;;;6160235;23;20056;-82
2023/09/06 07:59:51;;;;;;;6.05;5.45;;;;;;;;;;6135595;23;20100;-83
2023/09/06 08:02:17;;;;;;;7.43;6.05;;;;;;;;;;6186062;23;20373;-83
2023/09/06 08:04:43;;;;;;;8.52;5.82;;;;;;;;;;6158845;23;20017;-83
2023/09/06 08:07:09;;;;;;;7.13;5.30;;;;;;;;;;6134136;23;20083;-84
2023/09/06 08:09:37;;;;;;;6.45;5.65;;;;;;;;;;6131226;23;20017;-83
2023/09/06 08:12:05;;;;;;;6.60;5.40;;;;;;;;;;6159429;23;20017;-83
2023/09/06 08:14:31;;;;;;;6.20;5.50;;;;;;;;;;6184754;23;20017;-84
2023/09/06 08:16:57;;;;;;;7.28;5.40;;;;;;;;;;6134248;23;20021;-83
2023/09/06 08:19:23;;;;;;;9.65;5.50;;;;;;;;;;6160025;23;20063;-83
2023/09/06 08:21:49;;;;;;;6.60;5.40;;;;;;;;;;6134930;23;20063;-83
2023/09/06 08:24:18;;;;;;;5.60;4.93;;;;;;;;;;6132955;23;20013;-83
2023/09/06 08:26:48;;;;;;;8.43;5.35;;;;;;;;;;6185480;23;20024;-83
2023/09/06 08:29:14;;;;;;;7.50;5.47;;;;;;;;;;6186321;23;20084;-83
2023/09/06 08:31:40;;;;;;;8.13;5.25;;;;;;;;;;6132728;23;20021;-83
2023/09/06 08:34:07;;;;;;;6.68;4.93;;;;;;;;;;6184853;23;20330;-83
2023/09/06 08:36:33;;;;;;;7.80;4.90;;;;;;;;;;6159597;23;20035;-83
2023/09/06 08:39:00;;;;;;;6.82;4.85;;;;;;;;;;6186327;23;20024;-83
2023/09/06 08:41:26;;;;;;;6.03;4.97;;;;;;;;;;6186219;23;20017;-83
2023/09/06 08:43:53;;;;;;;8.45;5.60;;;;;;;;;;6158460;23;20024;-85
2023/09/06 08:46:22;;;;;;;7.03;4.30;;;;;;;;;;6185908;23;20013;-82
2023/09/06 08:48:49;;;;;;;7.28;4.95;;;;;;;;;;6159696;23;20025;-82
2023/09/06 08:51:16;;;;;;;6.50;4.63;;;;;;;;;;6159494;23;20035;-82
2023/09/06 08:53:43;;;;;;;6.63;4.65;;;;;;;;;;6134332;23;20357;-82
2023/09/06 08:56:10;;;;;;;5.43;4.30;;;;;;;;;;6186266;23;20349;-82
2023/09/06 08:58:36;;;;;;;6.72;4.72;;;;;;;;;;6185830;23;20314;-84
2023/09/06 09:01:03;;;;;;;6.88;4.60;;;;;;;;;;6186491;23;20017;-83
2023/09/06 09:03:30;;;;;;;5.70;4.85;;;;;;;;;;6159038;23;20017;-86
2023/09/06 09:06:09;;;;;;;6.45;4.60;;;;;;;;;;6159689;23;20025;-88
2023/09/06 09:09:01;;;;;;;5.85;4.80;;;;;;;;;;6154429;23;20020;-87
2023/09/06 09:14:32;;;;;;;5.57;4.30;;;;;;;;;;6180662;23;20072;-86
2023/09/06 09:17:07;;;;;;;6.18;4.10;;;;;;;;;;6135235;23;20448;-86
2023/09/06 09:19:34;;;;;;;6.43;4.55;;;;;;;;;;6134866;23;20025;-87
2023/09/06 09:22:37;;;;;;;;;;;;;;;;;;;;;
2023/09/06 09:25:23;;;;;;;5.53;4.28;;;;;;;;;;6158629;23;20017;-87
2023/09/06 09:28:30;;;;;;;5.40;3.78;;;;;;;;;;6143897;23;20018;-87
2023/09/06 09:37:19;;;;;;;4.75;4.25;;;;;;;;;;6130070;23;20022;-86
2023/09/06 09:39:47;;;;;;;6.97;4.75;;;;;;;;;;6102791;23;20028;-86
2023/09/06 09:42:16;;;;;;;6.90;3.90;;;;;;;;;;6129746;23;20389;-86
2023/09/06 09:44:42;;;;;;;5.10;3.85;;;;;;;;;;6104935;23;20060;-86
2023/09/06 09:50:10;;;;;;;5.25;3.80;;;;;;;;;;6065609;23;20026;-88
2023/09/06 09:52:36;;;;;;;7.65;3.80;;;;;;;;;;6098333;23;20024;-87
2023/09/06 09:55:06;;;;;;;5.82;3.67;;;;;;;;;;6105287;23;20021;-87
2023/09/06 09:57:38;;;;;;;5.65;4.05;;;;;;;;;;6105711;23;20112;-88
2023/09/06 10:00:07;;;;;;;4.38;3.90;;;;;;;;;;6105390;23;20017;-88
2023/09/06 10:02:35;;;;;;;3.83;3.20;;;;;;;;;;6105102;23;20025;-86
2023/09/06 10:05:02;;;;;;;5.82;3.70;;;;;;;;;;6154543;23;20025;-83
2023/09/06 10:07:30;;;;;;;6.90;4.22;;;;;;;;;;6128602;23;20049;-84
2023/09/06 10:09:57;;;;;;;6.00;3.42;;;;;;;;;;6130308;23;20021;-83
2023/09/06 10:12:24;;;;;;;4.45;3.90;;;;;;;;;;6105044;23;20350;-83
2023/09/06 10:14:51;;;;;;;4.03;3.47;;;;;;;;;;6106194;23;20029;-83
2023/09/06 10:17:19;;;;;;;5.82;3.67;;;;;;;;;;6130266;23;20017;-86
2023/09/06 10:19:46;;;;;;;4.53;3.47;;;;;;;;;;6105087;23;20024;-86
2023/09/06 10:22:16;;;;;;;6.13;3.38;;;;;;;;;;6105312;23;20485;-86
2023/09/06 10:24:43;;;;;;;4.47;3.17;;;;;;;;;;6104128;23;20341;-83
2023/09/06 10:27:12;;;;;;;3.97;3.17;;;;;;;;;;6108217;23;20021;-83
2023/09/06 10:29:50;;;;;;;4.43;3.28;;;;;;;;;;6159136;23;20017;-84
2023/09/06 10:32:16;;;;;;;5.25;3.33;;;;;;;;;;6186026;23;20017;-85
2023/09/06 10:34:48;;;;;;;4.35;3.38;;;;;;;;;;6158772;23;20449;-85
2023/09/06 10:37:15;;;;;;;6.10;3.40;;;;;;;;;;6184903;23;20017;-85
2023/09/06 10:39:53;;;;;;;5.18;3.30;;;;;;;;;;6133399;23;20480;-84
2023/09/06 10:42:20;;;;;;;5.20;3.80;;;;;;;;;;6158427;23;20017;-83
2023/09/06 10:44:55;;;;;;;5.78;3.42;;;;;;;;;;6134122;23;20024;-85
2023/09/06 10:47:31;;;;;;;5.00;3.25;;;;;;;;;;6158786;23;20017;-86
2023/09/06 11:10:42;;;;;;;;;;;;;;;;;;6096467;23;20186;-89
2023/09/06 11:13:34;;;;;;;3.90;2.90;;;;;;;;;;6072331;23;20012;-88
2023/09/06 11:16:01;;;;;;;4.07;2.63;;;;;;;;;;6075090;23;20014;-88
2023/09/06 12:36:56;;;;;;;3.35;2.40;;;;;;;;;;6182019;23;20039;-89
2023/09/06 12:46:24;;;;;;;3.13;2.35;;;;;;;;;;6186254;23;20024;-88
2023/09/06 12:48:59;;;;;;;3.65;2.30;;;;;;;;;;6159771;23;20036;-88
2023/09/06 12:51:28;;;;;;;3.60;2.40;;;;;;;;;;6162048;23;20017;-88
2023/09/06 12:53:54;;;;;;;12.25;2.63;;;;;;;;;;6136193;23;20017;-88
2023/09/06 12:56:23;;;;;;;4.32;2.55;;;;;;;;;;6135437;23;20017;-86
2023/09/06 12:58:49;;;;;;;3.47;2.40;;;;;;;;;;6159964;23;20021;-86
2023/09/06 13:01:18;;;;;;;3.10;2.40;;;;;;;;;;6135119;23;20073;-86
2023/09/06 13:03:48;;;;;;;3.63;2.50;;;;;;;;;;6160166;23;20385;-87
2023/09/06 13:06:14;;;;;;;2.67;2.30;;;;;;;;;;6159872;23;20017;-86
2023/09/06 13:08:50;;;;;;;3.20;2.35;;;;;;;;;;6160204;23;20385;-87
2023/09/06 13:11:18;;;;;;;3.15;2.20;;;;;;;;;;6158775;23;20050;-87
2023/09/06 13:13:48;;;;;;;3.22;2.40;;;;;;;;;;6160946;23;20029;-87
2023/09/06 13:16:16;;;;;;;5.40;2.67;;;;;;;;;;6185161;23;20456;-87
2023/09/06 13:18:47;;;;;;;3.83;2.30;;;;;;;;;;6134659;23;20023;-88
2023/09/06 13:21:36;;;;;;;3.47;2.65;;;;;;;;;;6159078;23;20017;-88
2023/09/06 13:24:34;;;;;;;6.32;2.50;;;;;;;;;;6133713;23;20021;-87
2023/09/06 13:27:10;;;;;;;3.90;2.47;;;;;;;;;;6158765;23;20088;-86
2023/09/06 13:29:55;;;;;;;3.55;2.53;;;;;;;;;;6158614;23;20013;-86
2023/09/06 13:32:45;;;;;;;3.47;2.40;;;;;;;;;;6064703;23;20023;-85
2023/09/06 13:35:11;;;;;;;2.70;2.28;;;;;;;;;;6041512;23;20023;-85
2023/09/06 13:37:38;;;;;;;4.57;2.70;;;;;;;;;;6040368;23;20353;-85
2023/09/06 13:40:07;;;;;;;2.97;2.38;;;;;;;;;;6040177;23;20356;-84
2023/09/06 13:42:33;;;;;;;2.95;2.47;;;;;;;;;;6041377;23;20019;-86
2023/09/06 13:45:00;;;;;;;4.28;2.90;;;;;;;;;;6064827;23;20150;-86
2023/09/06 13:47:26;;;;;;;2.97;2.30;;;;;;;;;;6041555;23;20475;-84
2023/09/06 13:49:52;;;;;;;3.58;2.65;;;;;;;;;;6065076;23;20030;-83
2023/09/06 13:52:21;;;;;;;3.13;2.80;;;;;;;;;;6040813;23;20018;-85
2023/09/06 13:54:47;;;;;;;3.03;2.50;;;;;;;;;;6064235;23;20403;-85
2023/09/06 13:57:16;;;;;;;2.75;2.33;;;;;;;;;;6040688;23;20018;-85
2023/09/06 13:59:42;;;;;;;2.70;2.30;;;;;;;;;;6040617;23;20489;-86
2023/09/06 14:02:08;;;;;;;3.47;2.60;;;;;;;;;;6041010;23;20019;-84
2023/09/06 14:04:35;;;;;;;3.15;2.30;;;;;;;;;;6128330;23;20021;-84
2023/09/06 14:07:04;;;;;;;2.88;2.50;;;;;;;;;;6130138;23;20013;-84
2023/09/06 14:09:30;;;;;;;3.38;2.35;;;;;;;;;;6104922;23;20025;-84
2023/09/06 14:11:59;;;;;;;2.58;2.20;;;;;;;;;;6155471;23;20100;-84
2023/09/06 14:14:25;;;;;;;2.90;2.53;;;;;;;;;;6127324;23;20408;-84
2023/09/06 14:16:51;;;;;;;4.70;2.30;;;;;;;;;;6128047;23;20036;-84
2023/09/06 14:19:17;;;;;;;4.05;2.28;;;;;;;;;;6104585;23;20025;-84
2023/09/06 14:21:46;;;;;;;2.72;2.35;;;;;;;;;;6129660;23;20033;-85
2023/09/06 14:24:13;;;;;;;3.70;2.40;;;;;;;;;;6128645;23;20021;-83
2023/09/06 14:26:43;;;;;;;2.55;2.20;;;;;;;;;;6129011;23;20087;-85
2023/09/06 14:29:12;;;;;;;3.28;2.50;;;;;;;;;;6129422;23;20024;-84
2023/09/06 14:31:38;;;;;;;4.20;2.40;;;;;;;;;;6128934;23;20018;-85
2023/09/06 14:34:04;;;;;;;3.15;2.40;;;;;;;;;;6128894;23;20028;-84
2023/09/06 14:36:30;;;;;;;3.00;2.17;;;;;;;;;;6133343;23;20048;-85
2023/09/06 14:38:56;;;;;;;3.03;2.17;;;;;;;;;;6184084;23;20409;-85
2023/09/06 14:41:26;;;;;;;3.72;2.40;;;;;;;;;;6157341;23;20021;-85
2023/09/06 14:43:54;;;;;;;3.70;2.55;;;;;;;;;;6184795;23;20021;-84
2023/09/06 14:46:20;;;;;;;4.15;2.40;;;;;;;;;;6158422;23;20021;-85
2023/09/06 14:48:47;;;;;;;3.92;2.50;;;;;;;;;;6184739;23;20293;-87
2023/09/06 14:51:13;;;;;;;5.13;2.70;;;;;;;;;;6134517;23;20028;-86
2023/09/06 14:53:39;;;;;;;2.95;2.22;;;;;;;;;;6134984;23;20017;-86
2023/09/06 14:56:06;;;;;;;3.13;2.38;;;;;;;;;;6134316;23;20278;-86
2023/09/06 14:58:32;;;;;;;2.97;2.33;;;;;;;;;;6158582;23;20031;-87
2023/09/06 15:00:59;;;;;;;3.00;2.60;;;;;;;;;;6158832;23;20088;-87
2023/09/06 15:03:25;;;;;;;3.42;2.30;;;;;;;;;;6158097;23;20068;-85
2023/09/06 15:05:51;;;;;;;3.80;2.38;;;;;;;;;;6133435;23;20021;-85
2023/09/06 15:08:17;;;;;;;4.00;2.60;;;;;;;;;;6184659;23;20024;-85
2023/09/06 15:10:44;;;;;;;3.17;2.45;;;;;;;;;;6185144;23;20021;-85
2023/09/06 15:13:13;;;;;;;3.08;2.55;;;;;;;;;;6187015;23;20096;-85
2023/09/06 15:15:40;;;;;;;3.75;2.55;;;;;;;;;;6159221;23;20028;-85
2023/09/06 15:18:06;;;;;;;3.88;2.60;;;;;;;;;;6186091;23;20024;-84
2023/09/06 15:20:34;;;;;;;3.65;2.50;;;;;;;;;;6185916;23;20027;-85
2023/09/06 15:23:00;;;;;;;2.55;2.30;;;;;;;;;;6186403;23;20080;-85
2023/09/06 15:25:26;;;;;;;4.00;2.53;;;;;;;;;;6158198;23;20411;-84
2023/09/06 15:27:52;;;;;;;4.60;2.47;;;;;;;;;;6135966;23;20024;-84
2023/09/06 15:30:19;;;;;;;2.80;2.50;;;;;;;;;;6160391;23;20444;-83
2023/09/06 15:32:45;;;;;;;4.10;2.45;;;;;;;;;;6160641;23;20021;-83
2023/09/06 15:35:12;;;;;;;3.08;2.50;;;;;;;;;;6160396;23;20024;-85
2023/09/06 15:37:38;;;;;;;3.10;2.30;;;;;;;;;;6160733;23;20025;-84
2023/09/06 15:40:05;;;;;;;3.10;2.40;;;;;;;;;;6159995;23;20053;-85
2023/09/06 15:42:32;;;;;;;3.30;2.35;;;;;;;;;;6160283;23;20021;-85
2023/09/06 15:44:58;;;;;;;3.50;2.38;;;;;;;;;;6185014;23;20025;-85
2023/09/06 15:47:24;;;;;;;4.03;2.60;;;;;;;;;;6185348;23;20340;-85
2023/09/06 15:49:52;;;;;;;2.42;2.20;;;;;;;;;;6157510;23;20396;-86
2023/09/06 15:52:18;;;;;;;4.95;2.60;;;;;;;;;;6157423;23;20111;-87
2023/09/06 15:54:44;;;;;;;4.43;2.58;;;;;;;;;;6183709;23;20379;-85
2023/09/06 15:57:11;;;;;;;3.83;2.30;;;;;;;;;;6157080;23;20100;-86
2023/09/06 15:59:37;;;;;;;3.33;2.60;;;;;;;;;;6156786;23;20020;-86
2023/09/06 16:02:04;;;;;;;5.57;2.78;;;;;;;;;;6157090;23;20024;-85
2023/09/06 16:04:30;;;;;;;2.67;2.30;;;;;;;;;;6157587;23;20048;-85
2023/09/06 16:06:56;;;;;;;2.72;2.30;;;;;;;;;;6186488;23;20044;-85
2023/09/06 16:09:23;;;;;;;4.00;2.50;;;;;;;;;;6185744;23;20468;-85
2023/09/06 16:11:54;;;;;;;4.13;2.50;;;;;;;;;;6159861;23;20017;-85
2023/09/06 16:14:21;;;;;;;3.15;2.50;;;;;;;;;;6185395;23;20025;-85
2023/09/06 16:16:47;;;;;;;3.60;2.80;;;;;;;;;;6159778;23;20092;-85
2023/09/06 16:19:13;;;;;;;5.32;2.53;;;;;;;;;;6135239;23;20072;-85
2023/09/06 16:21:40;;;;;;;3.75;2.45;;;;;;;;;;6185664;23;20338;-84
2023/09/06 16:24:06;;;;;;;3.90;2.55;;;;;;;;;;6134166;23;20104;-85
2023/09/06 16:26:32;;;;;;;3.05;2.50;;;;;;;;;;6135428;23;20510;-86
2023/09/06 16:28:59;;;;;;;4.13;2.70;;;;;;;;;;6160101;23;20029;-86
2023/09/06 16:31:25;;;;;;;3.63;2.50;;;;;;;;;;6159266;23;20073;-85
2023/09/06 16:33:51;;;;;;;3.72;2.90;;;;;;;;;;6185798;23;20470;-85
2023/09/06 16:36:18;;;;;;;3.45;2.42;;;;;;;;;;6135204;23;20433;-85
2023/09/06 16:38:44;;;;;;;3.75;2.50;;;;;;;;;;6159151;23;20027;-85
2023/09/06 16:41:10;;;;;;;4.00;2.70;;;;;;;;;;6159374;23;20013;-85
2023/09/06 16:43:37;;;;;;;3.10;2.72;;;;;;;;;;6134351;23;20115;-85
2023/09/06 16:46:04;;;;;;;4.15;2.80;;;;;;;;;;6158775;23;20032;-85
2023/09/06 16:48:30;;;;;;;4.55;3.10;;;;;;;;;;6159064;23;20021;-84
2023/09/06 16:50:56;;;;;;;4.70;3.25;;;;;;;;;;6185931;23;20013;-85
2023/09/06 16:53:22;;;;;;;7.45;3.70;;;;;;;;;;6185659;23;20020;-84
2023/09/06 16:55:48;;;;;;;4.95;3.25;;;;;;;;;;6134473;23;20053;-85
2023/09/06 16:58:15;;;;;;;5.93;3.42;;;;;;;;;;6158945;23;20024;-85
2023/09/06 17:00:42;;;;;;;6.00;3.70;;;;;;;;;;6185085;23;20453;-85
2023/09/06 17:03:08;;;;;;;7.43;3.20;;;;;;;;;;6159128;23;20436;-86
2023/09/06 17:05:37;;;;;;;7.53;3.13;;;;;;;;;;6134651;23;20314;-85
2023/09/06 17:08:05;;;;;;;3.97;3.25;;;;;;;;;;6134859;23;20017;-85
2023/09/06 17:10:34;;;;;;;5.07;3.17;;;;;;;;;;6159543;23;20092;-86
2023/09/06 17:13:03;;;;;;;4.55;3.28;;;;;;;;;;6158263;23;20028;-83
2023/09/06 17:15:31;;;;;;;4.05;3.10;;;;;;;;;;6184272;23;20458;-84
2023/09/06 17:17:57;;;;;;;4.78;3.45;;;;;;;;;;6158506;23;20091;-84
2023/09/06 17:20:25;;;;;;;3.45;3.10;;;;;;;;;;6158657;23;20017;-84
2023/09/06 17:22:51;;;;;;;5.15;3.40;;;;;;;;;;6156241;23;20021;-84
2023/09/06 17:25:20;;;;;;;3.53;3.22;;;;;;;;;;6132997;23;20017;-85
2023/09/06 17:27:51;;;;;;;4.30;3.15;;;;;;;;;;6159685;23;20017;-84
2023/09/06 17:30:19;;;;;;;4.45;3.33;;;;;;;;;;6185811;23;20330;-85
2023/09/06 17:33:05;;;;;;;5.25;2.92;;;;;;;;;;6159523;23;20080;-85
2023/09/06 17:35:32;;;;;;;;;;;;;;;;;;6159266;23;20013;-84
2023/09/06 17:37:59;;;;;;;5.15;3.08;;;;;;;;;;6133805;23;19920;-85
2023/09/06 17:40:28;;;;;;;4.63;3.35;;;;;;;;;;6158891;23;20017;-85
2023/09/06 17:42:54;;;;;;;7.65;3.90;;;;;;;;;;6159295;23;20024;-84
2023/09/06 17:45:23;;;;;;;5.95;3.28;;;;;;;;;;6134279;23;20115;-84
2023/09/06 17:47:56;;;;;;;5.00;3.58;;;;;;;;;;6134259;23;20021;-85
2023/09/06 17:50:27;;;;;;;4.18;3.30;;;;;;;;;;6158612;23;20017;-84
2023/09/06 17:52:54;;;;;;;4.22;3.30;;;;;;;;;;6158872;23;20075;-84
2023/09/06 17:55:20;;;;;;;4.22;3.05;;;;;;;;;;6158990;23;20048;-84
2023/09/06 17:57:47;;;;;;;3.70;2.90;;;;;;;;;;6133201;23;20016;-84
2023/09/06 18:00:18;;;;;;;4.25;3.08;;;;;;;;;;6158402;23;20092;-84
2023/09/06 18:02:48;;;;;;;3.65;3.13;;;;;;;;;;6158873;23;20028;-84
2023/09/06 18:05:17;;;;;;;4.15;2.95;;;;;;;;;;6158395;23;20498;-84
2023/09/06 18:07:46;;;;;;;3.53;3.10;;;;;;;;;;6158779;23;20021;-84
2023/09/06 18:10:12;;;;;;;5.07;3.50;;;;;;;;;;6158687;23;20024;-84
2023/09/06 18:12:42;;;;;;;5.22;3.40;;;;;;;;;;6134179;23;20020;-84
2023/09/06 18:15:12;;;;;;;3.90;3.13;;;;;;;;;;6157099;23;20479;-84
2023/09/06 18:17:49;;;;;;;7.70;3.33;;;;;;;;;;6158827;23;20373;-84
2023/09/06 18:20:15;;;;;;;5.13;3.30;;;;;;;;;;6158615;23;20092;-84
2023/09/06 18:22:41;;;;;;;4.43;4.03;;;;;;;;;;6134481;23;20024;-84
2023/09/06 18:25:08;;;;;;;5.10;3.83;;;;;;;;;;6159662;23;20040;-84
2023/09/06 18:27:34;;;;;;;4.30;3.53;;;;;;;;;;6134034;23;20322;-83
2023/09/06 18:30:00;;;;;;;5.00;4.50;;;;;;;;;;6133152;23;20071;-84
2023/09/06 18:32:27;;;;;;;5.47;4.00;;;;;;;;;;6159001;23;20021;-84
2023/09/06 18:34:54;;;;;;;5.03;3.80;;;;;;;;;;6159163;23;20021;-83
2023/09/06 18:37:20;;;;;;;4.80;3.78;;;;;;;;;;6133501;23;20036;-84
2023/09/06 18:39:48;;;;;;;5.75;4.15;;;;;;;;;;6134370;23;20036;-84
2023/09/06 18:42:14;;;;;;;4.47;3.72;;;;;;;;;;6159381;23;20020;-83
2023/09/06 18:44:40;;;;;;;6.07;4.07;;;;;;;;;;6134688;23;20440;-84
2023/09/06 18:47:08;;;;;;;5.82;4.35;;;;;;;;;;6135551;23;20072;-84
2023/09/06 18:49:38;;;;;;;4.97;4.30;;;;;;;;;;6157423;23;20112;-84
2023/09/06 18:52:04;;;;;;;4.30;3.90;;;;;;;;;;6160390;23;20021;-84
2023/09/06 18:54:31;;;;;;;5.88;4.47;;;;;;;;;;6160662;23;20052;-84
2023/09/06 18:56:57;;;;;;;4.88;3.90;;;;;;;;;;6136142;23;20017;-83
2023/09/06 18:59:23;;;;;;;8.45;4.43;;;;;;;;;;6160584;23;20109;-84
2023/09/06 19:01:49;;;;;;;4.63;3.88;;;;;;;;;;6134770;23;20013;-84
2023/09/06 19:04:15;;;;;;;7.72;4.38;;;;;;;;;;6136423;23;20332;-84
2023/09/06 19:06:42;;;;;;;6.50;5.13;;;;;;;;;;6136134;23;20017;-84
2023/09/06 19:09:08;;;;;;;6.25;4.88;;;;;;;;;;6160413;23;20017;-84
2023/09/06 19:11:37;;;;;;;6.50;4.75;;;;;;;;;;6136763;23;20028;-84
2023/09/06 19:14:03;;;;;;;5.45;4.50;;;;;;;;;;6161025;23;20021;-85
2023/09/06 19:16:31;;;;;;;7.05;4.80;;;;;;;;;;6135948;23;20036;-85
2023/09/06 19:19:00;;;;;;;5.80;4.97;;;;;;;;;;6161316;23;20013;-84
2023/09/06 19:21:26;;;;;;;5.18;4.60;;;;;;;;;;6160973;23;20021;-84
2023/09/06 19:23:53;;;;;;;4.32;3.92;;;;;;;;;;6160680;23;20032;-84
2023/09/06 19:26:19;;;;;;;5.43;4.93;;;;;;;;;;6136245;23;20021;-84
2023/09/06 19:28:45;;;;;;;8.00;5.43;;;;;;;;;;6135830;23;20021;-84
2023/09/06 19:31:11;;;;;;;6.47;5.10;;;;;;;;;;6135740;23;20483;-85
2023/09/06 19:33:38;;;;;;;21.48;4.93;;;;;;;;;;6135829;23;20467;-84
2023/09/06 19:36:05;;;;;;;5.32;4.65;;;;;;;;;;6160628;23;20013;-84
2023/09/06 19:38:32;;;;;;;5.20;4.70;;;;;;;;;;6106820;23;20021;-84
2023/09/06 19:41:01;;;;;;;6.07;5.35;;;;;;;;;;6130917;23;20049;-84
2023/09/06 19:43:29;;;;;;;5.95;5.32;;;;;;;;;;6106065;23;20021;-84
2023/09/06 19:46:01;;;;;;;6.43;5.22;;;;;;;;;;6107166;23;20017;-84
2023/09/06 19:48:27;;;;;;;6.55;5.25;;;;;;;;;;6130425;23;20290;-84
2023/09/06 19:50:53;;;;;;;6.60;4.50;;;;;;;;;;6105213;23;20032;-84
2023/09/06 19:53:19;;;;;;;8.18;5.18;;;;;;;;;;6130311;23;20025;-84
2023/09/06 19:55:47;;;;;;;5.90;4.50;;;;;;;;;;6128161;23;20121;-85
2023/09/06 19:58:17;;;;;;;7.65;5.38;;;;;;;;;;6105855;23;20108;-85
2023/09/06 20:00:44;;;;;;;6.95;5.43;;;;;;;;;;6106050;23;20028;-84
2023/09/06 20:03:10;;;;;;;8.10;5.03;;;;;;;;;;6105278;23;20021;-84
2023/09/06 20:05:36;;;;;;;7.15;6.40;;;;;;;;;;6104844;23;20073;-84
2023/09/06 20:08:02;;;;;;;6.45;5.45;;;;;;;;;;6105499;23;20049;-84
2023/09/06 20:10:31;;;;;;;7.00;6.03;;;;;;;;;;6105026;23;20572;-84
2023/09/06 20:12:57;;;;;;;8.68;5.80;;;;;;;;;;6129773;23;20017;-84
2023/09/06 20:15:23;;;;;;;7.20;6.20;;;;;;;;;;6105346;23;20052;-84
2023/09/06 20:17:49;;;;;;;6.93;5.57;;;;;;;;;;6105250;23;20025;-84
2023/09/06 20:20:17;;;;;;;8.40;6.30;;;;;;;;;;6104959;23;20045;-84
2023/09/06 20:22:43;;;;;;;6.63;5.80;;;;;;;;;;6130277;23;20259;-84
2023/09/06 20:25:12;;;;;;;6.65;5.63;;;;;;;;;;6129571;23;20025;-85
2023/09/06 20:27:38;;;;;;;8.90;6.72;;;;;;;;;;6106302;23;20021;-85
2023/09/06 20:30:05;;;;;;;8.20;6.05;;;;;;;;;;6130621;23;20068;-84
2023/09/06 20:32:31;;;;;;;6.05;5.40;;;;;;;;;;6106199;23;20104;-84
2023/09/06 20:34:57;;;;;;;7.30;5.63;;;;;;;;;;6106187;23;20020;-84
2023/09/06 20:37:23;;;;;;;6.72;6.03;;;;;;;;;;6104879;23;20025;-84
2023/09/06 20:39:50;;;;;;;7.45;5.88;;;;;;;;;;6105321;23;20100;-84
2023/09/06 20:42:16;;;;;;;6.68;5.75;;;;;;;;;;6105647;23;20017;-84
2023/09/06 20:44:42;;;;;;;6.47;5.82;;;;;;;;;;6104616;23;20024;-84
2023/09/06 20:47:08;;;;;;;8.25;6.25;;;;;;;;;;6129648;23;20092;-84
2023/09/06 20:49:34;;;;;;;7.03;5.60;;;;;;;;;;6129624;23;20021;-84
2023/09/06 20:52:00;;;;;;;8.55;6.05;;;;;;;;;;6104012;23;20334;-85
2023/09/06 20:54:32;;;;;;;8.43;6.55;;;;;;;;;;6103179;23;20017;-84
2023/09/06 20:56:58;;;;;;;6.80;5.72;;;;;;;;;;6130427;23;20033;-84
2023/09/06 20:59:24;;;;;;;6.22;5.63;;;;;;;;;;6129963;23;20021;-84
2023/09/06 21:01:51;;;;;;;7.13;5.68;;;;;;;;;;6129859;23;20406;-85
2023/09/06 21:04:17;;;;;;;6.80;5.35;;;;;;;;;;6104847;23;20125;-82
2023/09/06 21:06:43;;;;;;;6.07;5.47;;;;;;;;;;6127813;23;20057;-84
2023/09/06 21:09:10;;;;;;;5.88;5.30;;;;;;;;;;6104670;23;20082;-84
2023/09/06 21:11:36;;;;;;;8.38;6.18;;;;;;;;;;6155280;23;20048;-84
2023/09/06 21:14:02;;;;;;;7.20;5.82;;;;;;;;;;6104778;23;20108;-83
2023/09/06 21:16:28;;;;;;;6.80;5.63;;;;;;;;;;6104712;23;20018;-84
2023/09/06 21:18:55;;;;;;;8.80;5.60;;;;;;;;;;6104221;23;20025;-84
2023/09/06 21:21:21;;;;;;;7.53;5.70;;;;;;;;;;6104964;23;20116;-83
2023/09/06 21:23:47;;;;;;;9.05;5.93;;;;;;;;;;6104860;23;20073;-83
2023/09/06 21:26:13;;;;;;;6.47;5.85;;;;;;;;;;6130099;23;20025;-83
2023/09/06 21:28:39;;;;;;;7.00;5.85;;;;;;;;;;6104621;23;20413;-84
2023/09/06 21:31:05;;;;;;;10.07;6.47;;;;;;;;;;6104989;23;20069;-83
2023/09/06 21:33:32;;;;;;;7.00;6.30;;;;;;;;;;6105494;23;20076;-84
2023/09/06 21:35:58;;;;;;;9.73;7.55;;;;;;;;;;6105088;23;20100;-84
2023/09/06 21:38:24;;;;;;;7.95;6.78;;;;;;;;;;6103970;23;20100;-83
2023/09/06 21:40:50;;;;;;;7.82;7.03;;;;;;;;;;6105037;23;20464;-83
2023/09/06 21:43:16;;;;;;;8.15;7.32;;;;;;;;;;6104803;23;20024;-84
2023/09/06 21:45:42;;;;;;;7.90;7.10;;;;;;;;;;6129577;23;20020;-84
2023/09/06 21:48:09;;;;;;;8.10;7.00;;;;;;;;;;6104289;23;20326;-84
2023/09/06 21:50:38;;;;;;;8.20;7.40;;;;;;;;;;6129345;23;20449;-84
2023/09/06 21:53:05;;;;;;;9.73;7.13;;;;;;;;;;6104942;23;20073;-84
2023/09/06 21:55:31;;;;;;;8.00;6.90;;;;;;;;;;6104897;23;20017;-84
2023/09/06 21:57:57;;;;;;;7.95;7.10;;;;;;;;;;6103406;23;20017;-84
2023/09/06 22:00:28;;;;;;;9.60;7.38;;;;;;;;;;6129741;23;20030;-84
2023/09/06 22:02:55;;;;;;;8.75;7.35;;;;;;;;;;6129444;23;20438;-84
2023/09/06 22:05:22;;;;;;;7.65;6.57;;;;;;;;;;6102977;23;20021;-84
2023/09/06 22:07:48;;;;;;;9.70;7.25;;;;;;;;;;6104820;23;20017;-84
2023/09/06 22:10:14;;;;;;;8.35;6.75;;;;;;;;;;6128712;23;20021;-83
2023/09/06 22:12:40;;;;;;;8.60;7.00;;;;;;;;;;6128295;23;20021;-83
2023/09/06 22:15:08;;;;;;;8.05;7.07;;;;;;;;;;6104210;23;20013;-84
2023/09/06 22:17:35;;;;;;;9.07;7.30;;;;;;;;;;6104584;23;20516;-84
2023/09/06 22:20:01;;;;;;;8.07;7.20;;;;;;;;;;6103539;23;20323;-84
2023/09/06 22:22:27;;;;;;;8.85;7.95;;;;;;;;;;6128721;23;20449;-84
2023/09/06 22:24:53;;;;;;;9.77;7.53;;;;;;;;;;6154960;23;20021;-84
2023/09/06 22:27:19;;;;;;;14.45;7.82;;;;;;;;;;6127775;23;20029;-84
2023/09/06 22:29:46;;;;;;;10.13;8.10;;;;;;;;;;6104654;23;20018;-84
2023/09/06 22:32:12;;;;;;;9.20;7.75;;;;;;;;;;6129372;23;20024;-84